createdAt,value
2023-01-10T00:00:08.360Z,6.50
2023-01-10T00:02:44.444Z,6.40
2023-01-10T00:05:19.752Z,6.40
2023-01-10T00:07:54.612Z,6.50
2023-01-10T00:10:29.703Z,6.50
2023-01-10T00:13:23.155Z,6.50
2023-01-10T00:15:58.016Z,6.40
2023-01-10T00:18:32.889Z,6.40
2023-01-10T00:21:09.392Z,6.40
2023-01-10T00:23:44.656Z,6.30
2023-01-10T00:26:19.497Z,6.30
2023-01-10T00:28:54.433Z,6.30
2023-01-10T00:31:29.310Z,6.30
2023-01-10T00:34:04.203Z,6.30
2023-01-10T00:36:39.399Z,6.30
2023-01-10T00:39:15.575Z,6.30
2023-01-10T00:42:08.959Z,6.30
2023-01-10T00:44:46.734Z,6.40
2023-01-10T00:47:21.747Z,6.30
2023-01-10T00:49:56.606Z,6.30
2023-01-10T00:52:31.771Z,6.30
2023-01-10T00:55:07.428Z,6.30
2023-01-10T00:57:42.294Z,6.40
2023-01-10T01:00:17.317Z,6.40
2023-01-10T01:02:52.265Z,6.40
2023-01-10T01:05:27.308Z,6.40
2023-01-10T01:08:02.211Z,6.50
2023-01-10T01:10:37.108Z,6.40
2023-01-10T01:13:21.611Z,6.40
2023-01-10T01:16:00.543Z,6.30
2023-01-10T01:18:35.703Z,6.30
2023-01-10T01:21:10.590Z,6.30
2023-01-10T01:23:45.483Z,6.30
2023-01-10T01:26:20.295Z,6.30
2023-01-10T01:28:55.384Z,6.30
2023-01-10T01:31:30.209Z,6.30
2023-01-10T01:34:05.316Z,6.20
2023-01-10T01:36:40.191Z,6.20
2023-01-10T01:39:15.035Z,6.20
2023-01-10T01:42:00.129Z,6.30
2023-01-10T01:44:39.495Z,6.20
2023-01-10T01:47:26.780Z,6.30
2023-01-10T01:50:01.779Z,6.20
2023-01-10T01:52:37.650Z,6.20
2023-01-10T01:55:12.541Z,6.20
2023-01-10T01:57:50.327Z,6.20
2023-01-10T02:00:25.213Z,6.20
2023-01-10T02:03:02.911Z,6.20
2023-01-10T02:05:40.802Z,6.20
2023-01-10T02:08:16.415Z,6.20
2023-01-10T02:11:08.493Z,6.10
2023-01-10T02:13:45.863Z,6.20
2023-01-10T02:16:20.764Z,6.20
2023-01-10T02:18:55.697Z,6.10
2023-01-10T02:21:57.509Z,6.00
2023-01-10T02:25:23.001Z,5.90
2023-01-10T02:28:43.765Z,5.80
2023-01-10T02:32:05.134Z,5.70
2023-01-10T02:35:13.688Z,5.60
2023-01-10T02:38:21.138Z,5.60
2023-01-10T02:41:21.606Z,5.60
2023-01-10T02:44:09.113Z,5.60
2023-01-10T02:46:46.084Z,5.60
2023-01-10T02:49:21.021Z,5.60
2023-01-10T02:51:56.936Z,5.60
2023-01-10T02:54:31.799Z,5.50
2023-01-10T02:57:31.100Z,5.50
2023-01-10T03:00:14.820Z,5.40
2023-01-10T03:03:14.901Z,5.40
2023-01-10T03:06:19.387Z,5.30
2023-01-10T03:09:13.332Z,5.30
2023-01-10T03:11:50.142Z,5.30
2023-01-10T03:14:28.813Z,5.20
2023-01-10T03:17:09.185Z,5.20
2023-01-10T03:19:50.191Z,5.20
2023-01-10T03:22:29.306Z,5.30
2023-01-10T03:25:08.188Z,5.30
2023-01-10T03:28:06.580Z,5.20
2023-01-10T03:30:56.429Z,5.30
2023-01-10T03:33:33.525Z,5.20
2023-01-10T03:36:30.967Z,5.30
2023-01-10T03:39:24.125Z,5.30
2023-01-10T03:42:19.975Z,5.40
2023-01-10T03:45:09.998Z,5.30
2023-01-10T03:47:48.661Z,5.30
2023-01-10T03:50:26.176Z,5.40
2023-01-10T03:53:01.197Z,5.40
2023-01-10T03:55:37.228Z,5.40
2023-01-10T03:58:12.110Z,5.40
2023-01-10T04:00:47.174Z,5.40
2023-01-10T04:03:22.262Z,5.40
2023-01-10T04:05:57.180Z,5.40
2023-01-10T04:08:32.024Z,5.40
2023-01-10T04:11:06.912Z,5.40
2023-01-10T04:13:42.660Z,5.30
2023-01-10T04:16:17.541Z,5.30
2023-01-10T04:18:52.453Z,5.40
2023-01-10T04:21:27.328Z,5.30
2023-01-10T04:24:02.324Z,5.30
2023-01-10T04:26:37.193Z,5.20
2023-01-10T04:29:12.108Z,5.20
2023-01-10T04:31:47.051Z,5.20
2023-01-10T04:34:21.954Z,5.20
2023-01-10T04:36:56.880Z,5.20
2023-01-10T04:39:31.752Z,5.20
2023-01-10T04:42:06.635Z,5.10
2023-01-10T04:44:41.509Z,5.20
2023-01-10T04:47:16.525Z,5.10
2023-01-10T04:49:51.389Z,5.10
2023-01-10T04:52:28.168Z,5.20
2023-01-10T04:55:03.121Z,5.10
2023-01-10T04:57:38.104Z,5.20
2023-01-10T05:00:13.966Z,5.20
2023-01-10T05:02:48.911Z,5.20
2023-01-10T05:05:24.561Z,5.20
2023-01-10T05:07:59.497Z,5.30
2023-01-10T05:10:34.396Z,5.30
2023-01-10T05:13:09.275Z,5.40
2023-01-10T05:15:44.221Z,5.40
2023-01-10T05:18:19.139Z,5.40
2023-01-10T05:21:00.412Z,5.30
2023-01-10T05:23:35.875Z,5.40
2023-01-10T05:26:14.987Z,5.40
2023-01-10T05:28:50.563Z,5.50
2023-01-10T05:31:25.454Z,5.50
2023-01-10T05:34:00.331Z,5.60
2023-01-10T05:36:35.200Z,5.60
2023-01-10T05:39:10.094Z,5.60
2023-01-10T05:41:45.012Z,5.60
2023-01-10T05:44:19.963Z,5.70
2023-01-10T05:46:54.841Z,5.60
2023-01-10T05:49:29.754Z,5.70
2023-01-10T05:52:04.873Z,5.70
2023-01-10T05:54:41.001Z,5.70
2023-01-10T05:57:16.228Z,5.70
2023-01-10T05:59:51.858Z,5.70
2023-01-10T06:02:26.796Z,5.70
2023-01-10T06:05:01.741Z,5.70
2023-01-10T06:07:37.458Z,5.70
2023-01-10T06:10:12.488Z,5.70
2023-01-10T06:12:49.778Z,5.60
2023-01-10T06:15:24.780Z,5.60
2023-01-10T06:17:59.711Z,5.70
2023-01-10T06:20:35.203Z,5.60
2023-01-10T06:23:10.249Z,5.60
2023-01-10T06:25:45.861Z,5.80
2023-01-10T06:28:27.013Z,5.80
2023-01-10T06:31:02.720Z,5.80
2023-01-10T06:33:38.947Z,5.80
2023-01-10T06:36:14.214Z,5.80
2023-01-10T06:38:49.300Z,5.80
2023-01-10T06:41:24.220Z,5.80
2023-01-10T06:43:59.174Z,5.80
2023-01-10T06:46:34.143Z,5.90
2023-01-10T06:49:09.183Z,5.80
2023-01-10T06:51:44.038Z,5.90
2023-01-10T06:54:18.974Z,5.80
2023-01-10T06:56:53.866Z,5.90
2023-01-10T06:59:28.865Z,5.90
2023-01-10T07:02:03.989Z,5.80
2023-01-10T07:04:39.015Z,5.90
2023-01-10T07:07:14.117Z,5.90
2023-01-10T07:09:49.127Z,6.00
2023-01-10T07:12:24.132Z,6.00
2023-01-10T07:14:59.094Z,6.10
2023-01-10T07:17:34.015Z,6.10
2023-01-10T07:20:11.029Z,6.00
2023-01-10T07:22:57.567Z,6.00
2023-01-10T07:25:32.497Z,6.00
2023-01-10T07:28:07.468Z,6.10
2023-01-10T07:30:42.411Z,6.10
2023-01-10T07:33:17.336Z,6.10
2023-01-10T07:35:52.213Z,6.20
2023-01-10T07:38:27.093Z,6.30
2023-01-10T07:41:03.537Z,6.30
2023-01-10T07:43:38.481Z,6.30
2023-01-10T07:46:13.575Z,6.30
2023-01-10T07:48:49.170Z,6.30
2023-01-10T07:51:24.071Z,6.30
2023-01-10T07:53:58.974Z,6.40
2023-01-10T07:56:33.837Z,6.40
2023-01-10T07:59:08.838Z,6.40
2023-01-10T08:01:43.800Z,6.40
2023-01-10T08:04:18.767Z,6.40
2023-01-10T08:06:55.160Z,6.50
2023-01-10T08:09:30.074Z,6.50
2023-01-10T08:12:05.001Z,6.60
2023-01-10T08:14:39.979Z,6.70
2023-01-10T08:17:15.521Z,6.60
2023-01-10T08:19:50.557Z,6.60
2023-01-10T08:22:25.548Z,6.60
2023-01-10T08:25:00.520Z,6.60
2023-01-10T08:27:35.573Z,6.70
2023-01-10T08:30:11.766Z,6.70
2023-01-10T08:32:46.659Z,6.70
2023-01-10T08:35:21.717Z,6.80
2023-01-10T08:38:00.791Z,6.60
2023-01-10T08:40:35.982Z,6.60
2023-01-10T08:43:12.923Z,6.70
2023-01-10T08:45:48.919Z,6.70
2023-01-10T08:48:23.920Z,6.70
2023-01-10T08:50:58.815Z,6.80
2023-01-10T08:53:33.760Z,6.90
2023-01-10T08:56:09.860Z,6.90
2023-01-10T08:58:44.856Z,7.00
2023-01-10T09:01:19.891Z,7.10
2023-01-10T09:03:54.917Z,7.20
2023-01-10T09:06:29.904Z,7.10
2023-01-10T09:09:05.154Z,7.10
2023-01-10T09:11:41.844Z,7.10
2023-01-10T09:14:17.057Z,7.20
2023-01-10T09:16:52.422Z,7.20
2023-01-10T09:19:27.406Z,7.20
2023-01-10T09:22:02.295Z,7.20
2023-01-10T09:24:41.778Z,7.30
2023-01-10T09:27:16.824Z,7.50
2023-01-10T09:29:51.697Z,7.50
2023-01-10T09:32:26.807Z,7.50
2023-01-10T09:35:01.687Z,7.60
2023-01-10T09:37:37.945Z,7.60
2023-01-10T09:40:33.715Z,7.70
2023-01-10T09:43:54.495Z,7.80
2023-01-10T09:47:05.981Z,7.80
2023-01-10T09:50:01.237Z,7.80
2023-01-10T09:52:44.865Z,7.80
2023-01-10T09:55:36.705Z,7.80
2023-01-10T09:58:17.975Z,7.90
2023-01-10T10:00:57.598Z,7.90
2023-01-10T10:04:19.995Z,8.00
2023-01-10T10:06:55.009Z,7.90
2023-01-10T10:09:33.511Z,7.90
2023-01-10T10:12:48.218Z,7.90
2023-01-10T10:15:48.866Z,7.90
2023-01-10T10:19:11.382Z,8.00
2023-01-10T10:22:20.036Z,8.00
2023-01-10T10:25:19.607Z,8.10
2023-01-10T10:28:27.054Z,8.10
2023-01-10T10:31:13.835Z,8.20
2023-01-10T10:34:18.402Z,8.20
2023-01-10T10:37:25.811Z,8.30
2023-01-10T10:40:11.561Z,8.40
2023-01-10T10:42:51.154Z,8.60
2023-01-10T10:45:48.427Z,8.80
2023-01-10T10:48:36.909Z,8.90
2023-01-10T10:51:39.873Z,9.00
2023-01-10T10:54:16.485Z,9.00
2023-01-10T10:56:55.133Z,9.10
2023-01-10T10:59:30.228Z,9.20
2023-01-10T11:02:22.841Z,9.20
2023-01-10T11:05:05.386Z,9.10
2023-01-10T11:07:40.928Z,8.80
2023-01-10T11:10:34.973Z,8.60
2023-01-10T11:13:31.713Z,8.50
2023-01-10T11:16:08.117Z,8.40
2023-01-10T11:18:43.157Z,8.60
2023-01-10T11:21:21.675Z,8.60
2023-01-10T11:23:57.963Z,8.70
2023-01-10T11:26:41.068Z,8.70
2023-01-10T11:29:27.225Z,8.80
2023-01-10T11:32:15.107Z,9.00
2023-01-10T11:35:00.719Z,9.00
2023-01-10T11:37:36.786Z,9.10
2023-01-10T11:40:30.673Z,9.30
2023-01-10T11:43:33.859Z,9.30
2023-01-10T11:46:21.197Z,9.20
2023-01-10T11:49:08.332Z,9.20
2023-01-10T11:51:53.039Z,9.20
2023-01-10T11:54:30.071Z,9.20
2023-01-10T11:57:17.292Z,9.00
2023-01-10T12:00:03.748Z,8.90
2023-01-10T12:02:47.672Z,8.80
2023-01-10T12:05:23.766Z,8.90
2023-01-10T12:08:10.531Z,8.80
2023-01-10T12:11:01.919Z,8.90
2023-01-10T12:13:52.905Z,8.80
2023-01-10T12:16:34.179Z,8.80
2023-01-10T12:19:13.350Z,8.80
2023-01-10T12:21:49.232Z,9.00
2023-01-10T12:24:35.778Z,9.00
2023-01-10T12:27:17.383Z,9.20
2023-01-10T12:30:13.080Z,9.30
2023-01-10T12:32:57.247Z,9.40
2023-01-10T12:35:44.111Z,9.50
2023-01-10T12:39:06.555Z,9.70
2023-01-10T12:42:23.624Z,9.70
2023-01-10T12:45:47.634Z,9.80
2023-01-10T12:48:52.471Z,9.80
2023-01-10T12:51:29.330Z,9.60
2023-01-10T12:54:14.735Z,9.50
2023-01-10T12:56:50.908Z,9.40
2023-01-10T12:59:38.241Z,9.20
2023-01-10T13:02:19.794Z,9.20
2023-01-10T13:05:00.214Z,9.20
2023-01-10T13:07:35.910Z,9.20
2023-01-10T13:10:21.729Z,9.10
2023-01-10T13:13:13.735Z,9.10
2023-01-10T13:15:55.589Z,9.00
2023-01-10T13:18:32.172Z,8.90
2023-01-10T13:21:14.975Z,8.90
2023-01-10T13:23:59.008Z,8.90
2023-01-10T13:26:52.299Z,9.00
2023-01-10T13:29:33.161Z,8.90
2023-01-10T13:32:27.706Z,9.00
2023-01-10T13:35:18.519Z,9.10
2023-01-10T13:37:55.622Z,9.20
2023-01-10T13:40:31.883Z,9.20
2023-01-10T13:43:37.345Z,9.40
2023-01-10T13:46:17.216Z,9.50
2023-01-10T13:49:00.034Z,9.70
2023-01-10T13:51:36.189Z,9.80
2023-01-10T13:54:17.229Z,9.80
2023-01-10T13:56:52.141Z,9.80
2023-01-10T13:59:45.649Z,10.00
2023-01-10T14:02:29.210Z,10.10
2023-01-10T14:05:17.652Z,10.30
2023-01-10T14:07:55.011Z,10.30
2023-01-10T14:10:32.208Z,10.50
2023-01-10T14:13:17.932Z,10.70
2023-01-10T14:15:53.033Z,10.70
2023-01-10T14:18:35.480Z,10.70
2023-01-10T14:21:24.969Z,10.60
2023-01-10T14:24:00.511Z,10.50
2023-01-10T14:26:40.402Z,10.30
2023-01-10T14:29:18.308Z,10.20
2023-01-10T14:31:53.567Z,10.10
2023-01-10T14:34:36.938Z,10.00
2023-01-10T14:37:31.967Z,10.00
2023-01-10T14:40:23.198Z,10.00
2023-01-10T14:43:02.819Z,9.70
2023-01-10T14:45:51.920Z,9.60
2023-01-10T14:48:40.419Z,9.40
2023-01-10T14:51:30.403Z,9.30
2023-01-10T14:54:14.491Z,9.20
2023-01-10T14:56:52.277Z,9.10
2023-01-10T14:59:34.367Z,9.00
2023-01-10T15:02:23.260Z,9.00
2023-01-10T15:05:17.390Z,8.90
2023-01-10T15:07:54.419Z,8.80
2023-01-10T15:10:41.081Z,8.80
2023-01-10T15:13:19.279Z,8.80
2023-01-10T15:15:55.270Z,8.70
2023-01-10T15:18:43.801Z,8.70
2023-01-10T15:21:22.088Z,8.70
2023-01-10T15:23:57.130Z,8.60
2023-01-10T15:26:34.128Z,8.50
2023-01-10T15:29:24.492Z,8.50
2023-01-10T15:32:11.232Z,8.40
2023-01-10T15:34:53.480Z,8.40
2023-01-10T15:37:36.575Z,8.40
2023-01-10T15:40:31.282Z,8.30
2023-01-10T15:43:26.102Z,8.20
2023-01-10T15:46:05.130Z,8.20
2023-01-10T15:48:41.470Z,8.20
2023-01-10T15:51:29.457Z,8.10
2023-01-10T15:54:19.642Z,8.10
2023-01-10T15:57:23.123Z,8.00
2023-01-10T15:59:59.071Z,8.00
2023-01-10T16:02:34.466Z,8.00
2023-01-10T16:05:17.970Z,7.90
2023-01-10T16:07:53.210Z,7.90
2023-01-10T16:10:28.465Z,7.90
2023-01-10T16:13:31.683Z,7.80
2023-01-10T16:16:17.881Z,7.70
2023-01-10T16:18:52.827Z,7.60
2023-01-10T16:21:36.686Z,7.60
2023-01-10T16:24:22.180Z,7.60
2023-01-10T16:27:00.795Z,7.60
2023-01-10T16:29:35.734Z,7.50
2023-01-10T16:32:14.801Z,7.50
2023-01-10T16:34:49.832Z,7.50
2023-01-10T16:37:25.072Z,7.50
2023-01-10T16:40:00.086Z,7.50
2023-01-10T16:42:53.441Z,7.50
2023-01-10T16:45:28.349Z,7.50
2023-01-10T16:48:03.482Z,7.50
2023-01-10T16:50:39.696Z,7.50
2023-01-10T16:53:17.358Z,7.50
2023-01-10T16:55:53.623Z,7.40
2023-01-10T16:58:28.720Z,7.40
2023-01-10T17:01:03.791Z,7.50
2023-01-10T17:03:39.441Z,7.40
2023-01-10T17:06:15.750Z,7.40
2023-01-10T17:08:50.703Z,7.40
2023-01-10T17:11:33.782Z,7.40
2023-01-10T17:14:13.898Z,7.40
2023-01-10T17:16:49.006Z,7.40
2023-01-10T17:19:26.291Z,7.40
2023-01-10T17:22:01.304Z,7.40
2023-01-10T17:24:36.988Z,7.30
2023-01-10T17:27:12.706Z,7.30
2023-01-10T17:29:47.778Z,7.30
2023-01-10T17:32:22.809Z,7.30
2023-01-10T17:34:57.815Z,7.30
2023-01-10T17:37:33.029Z,7.30
2023-01-10T17:40:09.100Z,7.30
2023-01-10T17:42:45.079Z,7.30
2023-01-10T17:45:20.202Z,7.30
2023-01-10T17:47:55.125Z,7.30
2023-01-10T17:50:30.107Z,7.30
2023-01-10T17:53:05.847Z,7.30
2023-01-10T17:55:48.577Z,7.30
2023-01-10T17:58:23.455Z,7.30
2023-01-10T18:00:58.720Z,7.30
2023-01-10T18:03:34.089Z,7.30
2023-01-10T18:06:19.064Z,7.30
2023-01-10T18:09:01.106Z,7.30
2023-01-10T18:11:36.632Z,7.30
2023-01-10T18:14:30.065Z,7.30
2023-01-10T18:17:09.198Z,7.30
2023-01-10T18:19:45.107Z,7.30
2023-01-10T18:22:38.252Z,7.30
2023-01-10T18:25:15.496Z,7.30
2023-01-10T18:27:52.309Z,7.40
2023-01-10T18:30:27.284Z,7.30
2023-01-10T18:33:02.270Z,7.30
2023-01-10T18:35:39.065Z,7.30
2023-01-10T18:38:14.154Z,7.30
2023-01-10T18:40:51.726Z,7.30
2023-01-10T18:43:26.692Z,7.30
2023-01-10T18:46:05.866Z,7.20
2023-01-10T18:48:41.141Z,7.20
2023-01-10T18:51:18.840Z,7.20
2023-01-10T18:53:54.026Z,7.20
2023-01-10T18:56:28.923Z,7.10
2023-01-10T18:59:03.895Z,7.20
2023-01-10T19:01:38.886Z,7.20
2023-01-10T19:04:13.982Z,7.20
2023-01-10T19:06:48.893Z,7.20
2023-01-10T19:09:24.311Z,7.20
2023-01-10T19:11:59.413Z,7.20
2023-01-10T19:14:34.378Z,7.20
2023-01-10T19:17:09.366Z,7.30
2023-01-10T19:19:45.064Z,7.30
2023-01-10T19:22:22.754Z,7.30
2023-01-10T19:24:57.679Z,7.30
2023-01-10T19:27:33.769Z,7.20
2023-01-10T19:30:10.279Z,7.20
2023-01-10T19:32:45.262Z,7.20
2023-01-10T19:35:20.620Z,7.30
2023-01-10T19:37:55.559Z,7.20
2023-01-10T19:40:30.443Z,7.30
2023-01-10T19:43:05.693Z,7.30
2023-01-10T19:45:41.612Z,7.30
2023-01-10T19:48:16.698Z,7.30
2023-01-10T19:50:51.653Z,7.30
2023-01-10T19:53:27.187Z,7.30
2023-01-10T19:56:05.044Z,7.30
2023-01-10T19:58:40.070Z,7.30
2023-01-10T20:01:22.826Z,7.30
2023-01-10T20:04:01.701Z,7.30
2023-01-10T20:06:40.933Z,7.30
2023-01-10T20:09:16.150Z,7.30
2023-01-10T20:11:51.054Z,7.40
2023-01-10T20:14:26.078Z,7.40
2023-01-10T20:17:01.871Z,7.40
2023-01-10T20:19:37.111Z,7.40
2023-01-10T20:22:12.556Z,7.40
2023-01-10T20:24:47.476Z,7.40
2023-01-10T20:27:22.621Z,7.40
2023-01-10T20:29:57.595Z,7.40
2023-01-10T20:32:32.627Z,7.40
2023-01-10T20:35:07.935Z,7.40
2023-01-10T20:37:42.834Z,7.40
2023-01-10T20:40:17.950Z,7.40
2023-01-10T20:42:52.945Z,7.40
2023-01-10T20:45:27.799Z,7.40
2023-01-10T20:48:03.010Z,7.50
2023-01-10T20:50:41.593Z,7.50
2023-01-10T20:53:16.521Z,7.50
2023-01-10T20:55:59.772Z,7.50
2023-01-10T20:58:35.243Z,7.50
2023-01-10T21:01:16.929Z,7.50
2023-01-10T21:03:54.566Z,7.50
2023-01-10T21:06:29.678Z,7.40
2023-01-10T21:09:05.561Z,7.40
2023-01-10T21:11:56.617Z,7.40
2023-01-10T21:14:32.764Z,7.40
2023-01-10T21:17:07.746Z,7.50
2023-01-10T21:19:42.724Z,7.50
2023-01-10T21:22:17.672Z,7.50
2023-01-10T21:24:52.927Z,7.50
2023-01-10T21:27:31.187Z,7.60
2023-01-10T21:30:07.155Z,7.50
2023-01-10T21:32:42.237Z,7.50
2023-01-10T21:35:17.311Z,7.50
2023-01-10T21:37:52.279Z,7.50
2023-01-10T21:40:28.240Z,7.50
2023-01-10T21:43:03.260Z,7.50
2023-01-10T21:45:38.185Z,7.50
2023-01-10T21:48:13.158Z,7.50
2023-01-10T21:50:51.992Z,7.50
2023-01-10T21:53:28.284Z,7.50
2023-01-10T21:56:03.245Z,7.50
2023-01-10T21:58:38.157Z,7.50
2023-01-10T22:01:13.052Z,7.50
2023-01-10T22:03:48.057Z,7.40
2023-01-10T22:06:22.979Z,7.50
2023-01-10T22:08:58.224Z,7.50
2023-01-10T22:11:33.109Z,7.50
2023-01-10T22:14:07.997Z,7.50
2023-01-10T22:16:43.021Z,7.50
2023-01-10T22:19:17.947Z,7.50
2023-01-10T22:21:52.883Z,7.50
2023-01-10T22:24:29.913Z,7.50
2023-01-10T22:27:05.146Z,7.50
2023-01-10T22:29:40.314Z,7.50
2023-01-10T22:32:15.470Z,7.50
2023-01-10T22:34:50.353Z,7.50
2023-01-10T22:37:25.214Z,7.50
2023-01-10T22:40:00.091Z,7.50
2023-01-10T22:42:35.081Z,7.50
2023-01-10T22:45:10.633Z,7.50
2023-01-10T22:47:49.490Z,7.50
2023-01-10T22:50:24.750Z,7.50
2023-01-10T22:52:59.603Z,7.50
2023-01-10T22:55:34.836Z,7.50
2023-01-10T22:58:09.718Z,7.50
2023-01-10T23:00:48.141Z,7.60
2023-01-10T23:03:23.685Z,7.60
2023-01-10T23:05:59.381Z,7.50
2023-01-10T23:08:34.728Z,7.60
2023-01-10T23:11:11.209Z,7.60
2023-01-10T23:13:47.163Z,7.60
2023-01-10T23:16:29.704Z,7.60
2023-01-10T23:19:04.714Z,7.60
2023-01-10T23:21:39.643Z,7.60
2023-01-10T23:24:16.632Z,7.60
2023-01-10T23:26:51.539Z,7.60
2023-01-10T23:29:26.518Z,7.60
2023-01-10T23:32:01.624Z,7.60
2023-01-10T23:34:37.012Z,7.60
2023-01-10T23:37:11.887Z,7.60
2023-01-10T23:39:46.776Z,7.70
2023-01-10T23:42:21.644Z,7.70
2023-01-10T23:44:56.587Z,7.70
2023-01-10T23:47:31.452Z,7.80
2023-01-10T23:50:06.866Z,7.80
2023-01-10T23:52:41.747Z,7.80
2023-01-10T23:55:16.722Z,7.90
2023-01-10T23:57:51.597Z,7.80
